Time;durP1;ratioP1;P1;durP2;ratioP2;P2;SDS_P1;SDS_P2;PMS_P1;PMS_P2;Temp;Humidity;BMP_temperature;BMP_pressure;BME280_temperature;BME280_humidity;BME280_pressure;Samples;Min_cycle;Max_cycle;Signal;HPM_P1;HPM_P2
2022/08/30 00:02:58;;;;;;;3.35;2.10;;;;;;;22.54;57.57;101750.53;5065468;27;98916;-67
2022/08/30 00:05:24;;;;;;;3.90;1.98;;;;;;;22.53;57.56;101751.50;5061551;27;99311;-68
2022/08/30 00:07:51;;;;;;;2.70;2.20;;;;;;;22.50;57.77;101756.25;5060496;27;98890;-68
2022/08/30 00:10:17;;;;;;;2.38;2.10;;;;;;;22.65;57.65;101756.03;5066027;27;97047;-68
2022/08/30 00:12:44;;;;;;;2.92;2.00;;;;;;;22.56;57.55;101761.22;5072816;27;96837;-68
2022/08/30 00:15:13;;;;;;;2.90;2.10;;;;;;;22.67;57.32;101755.91;5071069;27;96866;-68
2022/08/30 00:17:40;;;;;;;2.38;2.17;;;;;;;22.47;57.82;101757.31;5071368;27;101904;-67
2022/08/30 00:20:12;;;;;;;2.10;2.00;;;;;;;22.74;57.16;101754.56;5069249;27;98656;-68
2022/08/30 00:22:41;;;;;;;4.93;2.30;;;;;;;22.71;57.01;101764.66;5066863;27;97534;-66
2022/08/30 00:25:08;;;;;;;2.70;2.30;;;;;;;22.77;56.96;101756.19;5068901;27;100337;-67
2022/08/30 00:27:36;;;;;;;3.33;2.20;;;;;;;22.58;57.57;101760.13;5070633;27;99315;-64
2022/08/30 00:30:06;;;;;;;2.30;2.10;;;;;;;22.73;57.19;101757.34;5067631;27;97351;-67
2022/08/30 00:32:32;;;;;;;2.83;2.30;;;;;;;22.75;57.23;101766.19;5066001;27;97092;-68
2022/08/30 00:35:01;;;;;;;2.38;2.20;;;;;;;22.79;56.85;101768.56;5069584;27;99540;-68
2022/08/30 00:37:29;;;;;;;4.43;2.40;;;;;;;22.76;56.96;101763.41;5070600;27;97854;-67
2022/08/30 00:39:55;;;;;;;2.15;2.03;;;;;;;22.67;57.28;101764.00;5069221;27;97096;-67
2022/08/30 00:42:22;;;;;;;5.55;2.35;;;;;;;22.77;56.96;101767.81;5071467;27;97153;-66
2022/08/30 00:44:49;;;;;;;2.80;2.60;;;;;;;22.72;57.22;101766.38;5071526;27;99267;-66
2022/08/30 00:47:18;;;;;;;3.08;2.50;;;;;;;22.73;57.10;101763.59;5071137;27;98790;-66
2022/08/30 00:49:49;;;;;;;3.65;2.20;;;;;;;22.65;57.37;101763.25;5071776;27;96897;-66
2022/08/30 00:52:18;;;;;;;2.80;2.60;;;;;;;22.51;57.47;101760.69;5063770;27;96824;-66
2022/08/30 00:54:47;;;;;;;5.05;2.95;;;;;;;22.56;57.39;101767.47;5068049;27;98949;-67
2022/08/30 00:57:15;;;;;;;3.38;3.08;;;;;;;22.67;57.30;101769.41;5069677;27;98837;-66
2022/08/30 00:59:47;;;;;;;2.13;2.03;;;;;;;22.52;57.72;101768.63;5072039;27;96813;-66
2022/08/30 01:02:14;;;;;;;3.50;2.58;;;;;;;22.39;57.88;101769.56;5071476;27;96975;-67
2022/08/30 01:04:45;;;;;;;3.10;2.90;;;;;;;22.45;57.87;101772.72;5070660;27;99908;-67
2022/08/30 01:07:11;;;;;;;3.33;2.50;;;;;;;22.40;57.93;101774.88;5067672;27;99024;-67
2022/08/30 01:09:38;;;;;;;3.20;2.40;;;;;;;22.50;57.73;101775.97;5070505;27;96869;-66
2022/08/30 01:12:08;;;;;;;3.08;2.60;;;;;;;22.41;58.10;101779.28;5070573;27;96874;-67
2022/08/30 01:14:37;;;;;;;3.13;2.85;;;;;;;22.47;57.81;101783.38;5067939;27;99011;-66
2022/08/30 01:17:08;;;;;;;2.90;2.70;;;;;;;22.39;58.21;101781.22;5064949;27;98001;-67
2022/08/30 01:19:40;;;;;;;3.08;2.55;;;;;;;22.30;58.16;101781.00;5071967;27;96890;-66
2022/08/30 01:22:18;;;;;;;4.47;2.78;;;;;;;22.31;58.44;101777.34;5067660;27;96898;-67
2022/08/30 01:24:46;;;;;;;3.55;3.22;;;;;;;22.30;58.62;101776.47;5070248;27;100667;-67
2022/08/30 01:27:14;;;;;;;2.83;2.58;;;;;;;22.20;58.90;101772.66;5067272;27;97589;-67
2022/08/30 01:29:43;;;;;;;3.55;3.00;;;;;;;22.21;58.71;101771.72;5070647;27;96947;-66
2022/08/30 01:32:18;;;;;;;3.75;3.30;;;;;;;22.25;58.51;101778.63;5071305;27;96879;-67
2022/08/30 01:34:47;;;;;;;3.90;3.60;;;;;;;22.21;58.68;101785.16;5067112;27;99203;-67
2022/08/30 01:37:15;;;;;;;6.63;4.22;;;;;;;22.08;58.75;101773.50;5063460;27;99036;-68
2022/08/30 01:39:45;;;;;;;3.28;3.03;;;;;;;22.05;59.13;101779.97;5066947;27;96840;-67
2022/08/30 01:42:13;;;;;;;3.90;3.30;;;;;;;22.08;59.14;101782.44;5069771;27;97369;-67
2022/08/30 01:44:39;;;;;;;3.70;3.40;;;;;;;22.19;58.67;101779.00;5064285;27;97624;-67
2022/08/30 01:47:08;;;;;;;3.83;3.45;;;;;;;22.22;58.67;101778.81;5064482;27;99584;-68
2022/08/30 01:49:34;;;;;;;4.22;3.60;;;;;;;22.34;58.33;101782.50;5062560;27;96930;-68
2022/08/30 01:52:04;;;;;;;4.10;3.78;;;;;;;22.16;58.75;101772.03;5064362;27;96896;-68
2022/08/30 01:54:30;;;;;;;4.25;3.85;;;;;;;22.23;58.76;101775.16;5067600;27;99265;-68
2022/08/30 01:56:57;;;;;;;4.68;3.53;;;;;;;22.31;58.33;101775.50;5063293;27;98913;-68
2022/08/30 01:59:25;;;;;;;6.25;4.35;;;;;;;22.15;58.86;101772.13;5069424;27;96885;-68
2022/08/30 02:01:53;;;;;;;4.40;4.00;;;;;;;22.24;58.59;101772.38;5068765;27;97173;-68
2022/08/30 02:04:19;;;;;;;7.13;4.15;;;;;;;22.01;59.03;101775.75;5060046;27;100829;-68
2022/08/30 02:06:46;;;;;;;5.18;4.07;;;;;;;21.75;59.96;101769.38;5072263;27;98967;-68
2022/08/30 02:09:13;;;;;;;3.72;3.42;;;;;;;21.98;59.25;101770.59;5063464;27;96820;-68
2022/08/30 02:11:42;;;;;;;4.90;3.70;;;;;;;21.94;59.35;101773.53;5071704;27;97684;-67
2022/08/30 02:14:08;;;;;;;4.13;3.80;;;;;;;21.96;59.41;101764.44;5070027;27;99281;-67
2022/08/30 02:16:37;;;;;;;4.60;3.88;;;;;;;22.09;58.76;101768.03;5068270;27;99208;-67
2022/08/30 02:19:04;;;;;;;5.80;4.35;;;;;;;22.03;59.18;101771.13;5069987;27;96968;-68
2022/08/30 02:21:31;;;;;;;4.13;3.83;;;;;;;22.07;58.98;101767.25;5071575;27;97245;-67
2022/08/30 02:24:00;;;;;;;4.40;4.00;;;;;;;21.92;59.26;101764.72;5069216;27;98860;-67
2022/08/30 02:26:26;;;;;;;5.03;3.88;;;;;;;22.08;58.61;101766.28;5066263;27;99120;-68
2022/08/30 02:28:53;;;;;;;6.75;4.45;;;;;;;21.96;59.11;101766.25;5070203;27;96844;-67
2022/08/30 02:31:22;;;;;;;4.10;3.63;;;;;;;22.06;58.87;101761.97;5067653;27;99366;-67
2022/08/30 02:33:52;;;;;;;5.35;4.28;;;;;;;21.95;58.88;101761.81;5069198;27;101520;-67
2022/08/30 02:36:20;;;;;;;4.93;4.43;;;;;;;21.80;59.40;101772.63;5065946;27;98801;-68
2022/08/30 02:38:46;;;;;;;5.45;4.65;;;;;;;21.67;59.78;101765.44;5064954;27;98745;-67
2022/08/30 02:41:13;;;;;;;5.57;5.07;;;;;;;21.58;59.96;101761.56;5065998;27;97810;-67
2022/08/30 02:43:39;;;;;;;6.50;5.00;;;;;;;21.74;59.45;101756.88;5068590;27;99089;-67
2022/08/30 02:46:06;;;;;;;6.28;5.32;;;;;;;21.62;59.70;101759.53;5067474;27;97513;-67
2022/08/30 02:48:34;;;;;;;5.18;4.68;;;;;;;21.63;59.79;101761.25;5067737;27;97056;-68
2022/08/30 02:51:08;;;;;;;6.50;5.03;;;;;;;21.56;60.16;101774.25;5069691;27;96893;-67
2022/08/30 02:53:35;;;;;;;5.68;5.07;;;;;;;21.54;59.81;101772.59;5069363;27;98991;-68
2022/08/30 02:56:01;;;;;;;6.40;5.25;;;;;;;21.64;59.84;101766.53;5062666;27;98968;-67
2022/08/30 02:58:31;;;;;;;7.68;5.43;;;;;;;21.71;59.42;101767.88;5071772;27;96735;-66
2022/08/30 03:00:57;;;;;;;6.50;5.75;;;;;;;21.65;59.83;101759.34;5068277;27;96971;-66
2022/08/30 03:03:24;;;;;;;6.45;5.85;;;;;;;21.47;60.07;101761.38;5066196;27;98991;-66
2022/08/30 03:05:50;;;;;;;6.32;5.25;;;;;;;21.60;59.51;101758.75;5065704;27;99092;-66
2022/08/30 03:08:18;;;;;;;5.80;5.25;;;;;;;21.70;59.20;101760.75;5074179;27;96837;-66
2022/08/30 03:10:45;;;;;;;7.38;5.18;;;;;;;21.59;59.32;101762.44;5069893;27;97111;-66
2022/08/30 03:13:11;;;;;;;5.72;5.03;;;;;;;21.47;59.95;101762.25;5064411;27;99201;-67
2022/08/30 03:15:38;;;;;;;6.97;5.28;;;;;;;21.60;59.51;101766.81;5069608;27;99173;-67
2022/08/30 03:18:09;;;;;;;8.75;5.35;;;;;;;21.41;59.69;101759.09;5063593;27;98753;-68
2022/08/30 03:20:35;;;;;;;6.47;4.78;;;;;;;21.50;59.95;101763.00;5076051;27;98865;-67
2022/08/30 03:23:02;;;;;;;7.80;5.30;;;;;;;21.51;59.73;101756.69;5065264;27;98943;-67
2022/08/30 03:25:30;;;;;;;6.22;5.35;;;;;;;21.58;59.48;101760.69;5069476;27;98952;-67
2022/08/30 03:27:56;;;;;;;5.68;5.10;;;;;;;21.43;59.86;101765.25;5066225;27;96768;-68
2022/08/30 03:30:22;;;;;;;5.63;5.10;;;;;;;21.59;59.43;101760.59;5066204;27;97218;-68
2022/08/30 03:32:49;;;;;;;5.90;5.30;;;;;;;21.60;59.63;101762.31;5070225;27;97699;-68
2022/08/30 03:35:16;;;;;;;6.55;5.20;;;;;;;21.59;59.53;101767.81;5067300;27;99187;-68
2022/08/30 03:37:44;;;;;;;5.55;5.00;;;;;;;21.66;59.39;101769.97;5061340;27;97690;-68
2022/08/30 03:40:12;;;;;;;6.63;6.00;;;;;;;21.60;59.31;101770.38;5069868;27;97232;-67
2022/08/30 03:42:40;;;;;;;6.50;5.90;;;;;;;21.45;59.88;101771.38;5070262;27;99544;-68
2022/08/30 03:45:09;;;;;;;12.30;5.75;;;;;;;21.58;59.82;101766.94;5066128;27;98862;-68
2022/08/30 03:47:36;;;;;;;9.05;6.30;;;;;;;21.45;59.64;101779.47;5072855;27;96928;-67
2022/08/30 03:50:04;;;;;;;8.73;6.30;;;;;;;21.67;59.30;101781.59;5075412;27;96936;-68
2022/08/30 03:52:31;;;;;;;9.63;6.03;;;;;;;21.75;58.90;101780.13;5069972;27;100246;-67
2022/08/30 03:54:59;;;;;;;7.80;5.75;;;;;;;21.66;59.35;101788.78;5070372;27;98974;-68
2022/08/30 03:57:26;;;;;;;6.95;6.22;;;;;;;21.60;59.29;101783.81;5067047;27;97191;-67
2022/08/30 03:59:53;;;;;;;7.82;5.75;;;;;;;21.66;59.28;101783.41;5073363;27;97136;-67
2022/08/30 04:02:20;;;;;;;6.53;5.20;;;;;;;21.80;58.85;101783.38;5070193;27;101660;-67
2022/08/30 04:04:47;;;;;;;6.05;5.22;;;;;;;21.76;58.95;101786.38;5067038;27;99098;-67
2022/08/30 04:07:13;;;;;;;5.63;5.03;;;;;;;21.50;59.33;101790.78;5068401;27;97045;-67
2022/08/30 04:09:40;;;;;;;6.65;5.20;;;;;;;21.59;59.56;101789.31;5070874;27;97778;-67
2022/08/30 04:12:07;;;;;;;7.10;5.65;;;;;;;21.55;59.59;101791.34;5068283;27;99004;-67
2022/08/30 04:14:33;;;;;;;6.88;5.32;;;;;;;21.23;60.40;101788.03;5069429;27;99243;-67
2022/08/30 04:17:05;;;;;;;6.03;5.10;;;;;;;21.29;60.33;101790.31;5073166;27;97135;-66
2022/08/30 04:19:32;;;;;;;6.43;5.25;;;;;;;21.07;61.18;101787.22;5073152;27;97793;-67
2022/08/30 04:21:58;;;;;;;6.63;4.63;;;;;;;21.32;60.49;101792.81;5069763;27;99332;-67
2022/08/30 04:24:24;;;;;;;6.93;5.10;;;;;;;21.34;60.48;101796.25;5068153;27;99140;-67
2022/08/30 04:26:51;;;;;;;5.78;5.00;;;;;;;21.20;60.94;101798.13;5066094;27;96782;-68
2022/08/30 04:29:17;;;;;;;6.40;5.50;;;;;;;21.27;60.65;101794.91;5069520;27;97011;-66
2022/08/30 04:31:44;;;;;;;14.80;5.63;;;;;;;21.41;59.99;101800.28;5070929;27;99325;-66
2022/08/30 04:34:15;;;;;;;9.20;5.50;;;;;;;21.43;59.94;101794.81;5068672;27;99644;-66
2022/08/30 04:36:42;;;;;;;6.68;5.97;;;;;;;21.44;59.87;101796.53;5068007;27;97398;-66
2022/08/30 04:39:09;;;;;;;7.55;6.13;;;;;;;21.59;59.55;101805.47;5072161;27;96872;-66
2022/08/30 04:41:36;;;;;;;7.40;6.03;;;;;;;21.34;60.04;101806.16;5067994;27;100172;-71
2022/08/30 04:44:04;;;;;;;10.60;6.30;;;;;;;21.52;59.89;101805.00;5070740;27;98613;-67
2022/08/30 04:46:31;;;;;;;5.85;5.35;;;;;;;21.65;59.56;101807.75;5071207;27;96845;-67
2022/08/30 04:48:57;;;;;;;5.93;5.32;;;;;;;21.62;59.47;101816.00;5072038;27;96855;-66
2022/08/30 04:51:25;;;;;;;6.47;4.70;;;;;;;21.82;58.77;101805.66;5068454;27;98186;-66
2022/08/30 04:53:53;;;;;;;6.75;4.70;;;;;;;21.63;59.20;101815.91;5070400;27;99135;-66
2022/08/30 04:56:22;;;;;;;5.32;4.82;;;;;;;21.72;58.95;101818.00;5066215;27;96970;-67
2022/08/30 04:58:50;;;;;;;7.53;5.05;;;;;;;21.93;58.60;101820.22;5070118;27;96853;-67
2022/08/30 05:01:21;;;;;;;5.40;4.90;;;;;;;21.97;58.28;101819.13;5071711;27;99385;-67
2022/08/30 05:03:48;;;;;;;7.35;4.63;;;;;;;21.92;58.33;101815.84;5069652;27;99227;-67
2022/08/30 05:06:16;;;;;;;6.90;4.90;;;;;;;21.85;58.66;101810.00;5069245;27;97495;-68
2022/08/30 05:08:44;;;;;;;6.00;5.28;;;;;;;21.81;58.75;101811.16;5068553;27;97684;-67
2022/08/30 05:11:10;;;;;;;6.72;4.53;;;;;;;21.94;58.83;101812.06;5066713;27;98763;-68
2022/08/30 05:13:37;;;;;;;5.20;4.70;;;;;;;21.91;58.71;101817.66;5067743;27;98647;-68
2022/08/30 05:16:06;;;;;;;5.63;4.88;;;;;;;22.09;58.35;101819.16;5068172;27;98555;-68
2022/08/30 05:18:33;;;;;;;6.38;4.85;;;;;;;22.17;58.12;101816.81;5069324;27;96989;-67
2022/08/30 05:21:04;;;;;;;13.18;5.47;;;;;;;22.02;58.74;101819.66;5066232;27;99176;-68
2022/08/30 05:23:31;;;;;;;7.20;5.15;;;;;;;22.28;57.86;101829.56;5069353;27;97821;-68
2022/08/30 05:26:03;;;;;;;6.43;5.15;;;;;;;22.22;58.02;101836.22;5063713;27;98802;-68
2022/08/30 05:28:30;;;;;;;5.03;4.32;;;;;;;22.26;57.92;101836.84;5065830;27;97051;-67
2022/08/30 05:30:56;;;;;;;7.88;4.47;;;;;;;22.44;57.82;101834.78;5066879;27;99003;-68
2022/08/30 05:33:23;;;;;;;6.25;4.60;;;;;;;22.40;57.67;101831.41;5063981;27;99054;-68
2022/08/30 05:35:49;;;;;;;6.20;5.60;;;;;;;22.55;57.24;101834.91;5068816;27;96746;-67
2022/08/30 05:38:20;;;;;;;7.07;5.20;;;;;;;22.58;57.11;101829.28;5064928;27;96711;-67
2022/08/30 05:40:47;;;;;;;6.10;5.47;;;;;;;22.48;57.62;101837.16;5070103;27;99784;-67
2022/08/30 05:43:14;;;;;;;7.47;4.55;;;;;;;22.59;57.47;101842.66;5063248;27;98856;-68
2022/08/30 05:45:43;;;;;;;6.18;5.35;;;;;;;22.65;57.27;101836.84;5069555;27;96695;-66
2022/08/30 05:48:09;;;;;;;6.00;5.40;;;;;;;22.61;57.28;101842.56;5072033;27;98709;-67
2022/08/30 05:50:36;;;;;;;5.93;5.28;;;;;;;22.58;57.47;101843.63;5067539;27;99594;-67
2022/08/30 05:53:02;;;;;;;7.45;4.85;;;;;;;22.45;57.62;101834.66;5064768;27;99002;-68
2022/08/30 05:55:29;;;;;;;9.40;5.15;;;;;;;22.54;57.05;101834.03;5070848;27;97115;-67
2022/08/30 05:57:59;;;;;;;6.38;4.82;;;;;;;22.52;57.80;101835.09;5070558;27;96841;-67
2022/08/30 06:00:29;;;;;;;6.72;5.35;;;;;;;22.78;57.09;101838.72;5068963;27;101915;-67
2022/08/30 06:02:57;;;;;;;5.65;4.75;;;;;;;22.73;57.04;101844.44;5067179;27;99460;-67
2022/08/30 06:05:24;;;;;;;7.28;5.28;;;;;;;22.82;56.76;101842.94;5068296;27;97512;-67
2022/08/30 06:07:53;;;;;;;4.88;4.45;;;;;;;22.47;57.55;101843.50;5075787;27;96971;-66
2022/08/30 06:10:19;;;;;;;6.95;5.13;;;;;;;22.91;56.58;101847.66;5066169;27;100558;-68
2022/08/30 06:12:46;;;;;;;5.70;4.53;;;;;;;22.72;57.27;101849.88;5066651;27;99482;-68
2022/08/30 06:15:14;;;;;;;7.53;5.25;;;;;;;22.91;56.53;101848.53;5069574;27;97828;-69
2022/08/30 06:17:42;;;;;;;5.93;5.30;;;;;;;22.92;56.24;101849.41;5063652;27;98387;-68
2022/08/30 06:20:10;;;;;;;6.05;4.97;;;;;;;23.09;56.26;101854.50;5066302;27;100238;-68
2022/08/30 06:22:37;;;;;;;9.38;5.68;;;;;;;22.75;56.99;101847.91;5073686;27;98924;-68
2022/08/30 06:25:04;;;;;;;7.32;4.57;;;;;;;22.72;57.39;101848.06;5068463;27;97686;-69
2022/08/30 06:27:30;;;;;;;5.85;4.75;;;;;;;23.08;56.41;101851.91;5069549;27;97153;-67
2022/08/30 06:29:57;;;;;;;5.50;5.00;;;;;;;22.74;57.15;101850.69;5063704;27;99007;-67
2022/08/30 06:32:23;;;;;;;9.30;5.05;;;;;;;23.14;56.13;101851.47;5075834;27;98885;-66
2022/08/30 06:34:53;;;;;;;5.25;4.68;;;;;;;23.05;56.69;101850.28;5069541;27;97321;-67
2022/08/30 06:37:20;;;;;;;9.75;6.18;;;;;;;23.33;56.04;101855.44;5067626;27;97476;-68
2022/08/30 06:39:46;;;;;;;9.45;6.47;;;;;;;23.40;55.44;101855.88;5070323;27;99451;-66
2022/08/30 06:42:14;;;;;;;5.90;4.90;;;;;;;23.20;56.37;101859.13;5067970;27;99284;-67
2022/08/30 06:44:44;;;;;;;9.55;5.65;;;;;;;23.54;55.47;101861.16;5064657;27;96894;-67
2022/08/30 06:47:11;;;;;;;6.78;5.35;;;;;;;23.42;55.57;101860.19;5062762;27;98335;-69
2022/08/30 06:49:37;;;;;;;7.43;5.05;;;;;;;23.36;55.43;101860.63;5069964;27;99148;-68
2022/08/30 06:52:05;;;;;;;5.45;4.80;;;;;;;23.39;55.45;101862.22;5070596;27;99168;-67
2022/08/30 06:54:31;;;;;;;7.63;5.82;;;;;;;23.58;55.19;101864.47;5069348;27;97625;-66
2022/08/30 06:56:58;;;;;;;8.45;5.82;;;;;;;23.91;54.33;101867.41;5064020;27;96815;-67
2022/08/30 06:59:25;;;;;;;10.32;5.45;;;;;;;23.87;54.55;101859.66;5066912;27;97643;-67
2022/08/30 07:01:51;;;;;;;11.25;7.55;;;;;;;24.02;53.75;101859.41;5064693;27;98805;-68
2022/08/30 07:04:18;;;;;;;12.43;6.68;;;;;;;24.02;54.08;101864.81;5065305;27;97013;-67
2022/08/30 07:06:45;;;;;;;9.93;6.40;;;;;;;23.82;54.51;101873.50;5071264;27;96948;-68
2022/08/30 07:09:26;;;;;;;8.90;6.68;;;;;;;24.05;53.87;101864.56;5067236;27;98989;-68
2022/08/30 07:11:53;;;;;;;11.00;8.25;;;;;;;24.03;53.75;101868.34;5069038;27;98037;-68
2022/08/30 07:14:23;;;;;;;9.18;7.28;;;;;;;23.83;54.39;101869.81;5065873;27;96836;-67
2022/08/30 07:16:50;;;;;;;9.15;6.70;;;;;;;24.29;53.39;101866.44;5071193;27;96978;-69
2022/08/30 07:19:16;;;;;;;14.10;7.43;;;;;;;24.26;53.38;101864.84;5069000;27;98887;-68
2022/08/30 07:21:43;;;;;;;;;;;;;;;24.33;52.80;101860.69;5061691;27;99166;-68
2022/08/30 07:24:11;;;;;;;11.65;7.50;;;;;;;24.46;52.83;101876.84;5070082;27;96920;-67
2022/08/30 07:26:41;;;;;;;11.23;8.13;;;;;;;24.68;51.72;101871.50;5067584;27;96954;-67
2022/08/30 07:29:09;;;;;;;12.90;7.53;;;;;;;24.93;51.45;101868.66;5065766;27;98681;-66
2022/08/30 07:31:36;;;;;;;15.18;8.02;;;;;;;24.20;52.65;101870.69;5068417;27;101685;-67
2022/08/30 07:34:04;;;;;;;13.20;8.25;;;;;;;24.77;51.66;101873.50;5071997;27;96830;-67
2022/08/30 07:36:31;;;;;;;10.98;7.72;;;;;;;24.73;51.66;101873.88;5072546;27;97567;-67
2022/08/30 07:38:59;;;;;;;8.20;7.30;;;;;;;24.96;51.64;101876.53;5068788;27;101978;-66
2022/08/30 07:41:28;;;;;;;11.38;7.63;;;;;;;24.71;52.18;101876.69;5076870;27;98868;-67
2022/08/30 07:43:57;;;;;;;9.68;7.47;;;;;;;24.91;51.57;101884.13;5071557;27;96756;-68
2022/08/30 07:46:24;;;;;;;8.40;7.30;;;;;;;24.94;51.52;101875.78;5068841;27;96938;-68
2022/08/30 07:48:53;;;;;;;9.43;7.53;;;;;;;24.87;51.44;101885.34;5072110;27;98919;-68
2022/08/30 07:51:23;;;;;;;9.98;7.00;;;;;;;24.79;51.74;101887.75;5068605;27;98791;-69
2022/08/30 07:53:53;;;;;;;8.20;7.15;;;;;;;24.84;51.76;101893.66;5066226;27;97920;-69
2022/08/30 07:56:19;;;;;;;8.32;6.65;;;;;;;24.91;51.44;101894.09;5066071;27;97175;-69
2022/08/30 07:58:47;;;;;;;6.70;6.00;;;;;;;24.91;50.55;101892.25;5069372;27;99271;-67
2022/08/30 08:01:18;;;;;;;6.53;5.93;;;;;;;24.93;50.32;101900.25;5068695;27;99382;-68
2022/08/30 08:03:50;;;;;;;7.80;5.43;;;;;;;24.98;50.38;101888.09;5053913;27;98607;-68
2022/08/30 08:06:18;;;;;;;9.93;5.65;;;;;;;25.21;49.54;101893.50;5065063;27;97104;-68
2022/08/30 08:08:49;;;;;;;6.97;6.25;;;;;;;25.20;49.40;101894.53;5066171;27;98984;-68
2022/08/30 08:11:29;;;;;;;8.50;5.82;;;;;;;25.46;48.91;101895.16;5063108;27;99061;-68
2022/08/30 08:13:58;;;;;;;6.60;5.18;;;;;;;25.56;48.15;101893.41;5066785;27;97569;-68
2022/08/30 08:16:29;;;;;;;5.65;4.78;;;;;;;25.42;48.67;101892.69;5069792;27;97573;-67
2022/08/30 08:18:56;;;;;;;9.98;5.55;;;;;;;25.71;48.05;101892.22;5066716;27;97735;-68
2022/08/30 08:21:24;;;;;;;7.43;4.68;;;;;;;25.94;47.51;101887.63;5071807;27;98884;-73
2022/08/30 08:23:51;;;;;;;5.25;4.38;;;;;;;26.30;47.01;101894.59;5063832;27;97239;-67
2022/08/30 08:26:20;;;;;;;6.78;3.90;;;;;;;26.45;45.14;101894.16;5069022;27;96891;-68
2022/08/30 08:28:48;;;;;;;3.45;3.17;;;;;;;26.76;45.13;101902.41;5070711;27;99304;-66
2022/08/30 08:31:16;;;;;;;3.72;3.20;;;;;;;26.89;44.30;101903.97;5069335;27;98974;-69
2022/08/30 08:33:47;;;;;;;2.85;2.65;;;;;;;27.00;43.86;101910.31;5067495;27;97514;-67
2022/08/30 08:36:13;;;;;;;3.05;2.78;;;;;;;26.87;43.58;101905.91;5069574;27;96917;-70
2022/08/30 08:38:39;;;;;;;4.07;2.45;;;;;;;26.89;43.81;101913.97;5064765;27;99454;-69
2022/08/30 08:41:44;;;;;;;3.25;2.70;;;;;;;26.61;44.07;101912.69;5072817;27;100541;-68
2022/08/30 08:44:17;;;;;;;3.38;2.60;;;;;;;26.36;45.12;101908.50;5065777;27;97361;-67
2022/08/30 08:46:53;;;;;;;3.92;3.10;;;;;;;26.44;45.25;101913.28;5069333;27;97330;-67
2022/08/30 08:49:23;;;;;;;3.60;3.30;;;;;;;26.32;45.74;101907.00;5065438;27;99328;-67
2022/08/30 08:54:44;;;;;;;3.05;2.78;;;;;;;26.25;45.63;101913.94;5067677;27;97069;-67
2022/08/30 08:57:12;;;;;;;3.22;2.33;;;;;;;26.20;45.54;101914.28;5069009;27;97108;-67
2022/08/30 08:59:39;;;;;;;2.90;2.70;;;;;;;25.85;46.17;101916.34;5068704;27;97894;-68
2022/08/30 09:02:22;;;;;;;3.53;2.60;;;;;;;25.73;46.60;101923.56;5069701;27;100834;-67
2022/08/30 09:04:54;;;;;;;4.30;3.50;;;;;;;25.47;47.60;101927.47;5072634;27;97989;-67
2022/08/30 09:07:22;;;;;;;4.90;4.30;;;;;;;25.37;48.14;101929.22;5076665;27;96869;-68
2022/08/30 09:09:49;;;;;;;4.40;2.85;;;;;;;25.19;48.83;101925.25;5070316;27;99661;-66
2022/08/30 09:12:16;;;;;;;5.63;2.90;;;;;;;25.34;48.18;101934.84;5065124;27;98909;-67
2022/08/30 09:14:45;;;;;;;2.70;2.50;;;;;;;25.28;48.27;101927.22;5070857;27;96927;-67
2022/08/30 09:17:16;;;;;;;3.00;1.70;;;;;;;25.35;47.73;101923.03;5067828;27;96909;-67
2022/08/30 09:19:45;;;;;;;4.30;1.70;;;;;;;25.78;46.62;101928.66;5062403;27;98758;-67
2022/08/30 09:22:20;;;;;;;3.05;1.67;;;;;;;26.55;45.12;101934.91;5069089;27;98922;-67
2022/08/30 09:24:50;;;;;;;2.65;1.10;;;;;;;26.54;44.49;101931.31;5067409;27;97798;-67
2022/08/30 09:27:21;;;;;;;1.50;1.00;;;;;;;26.55;43.91;101938.47;5068486;27;96964;-67
2022/08/30 09:29:53;;;;;;;6.28;1.30;;;;;;;26.32;43.90;101939.53;5069390;27;98911;-67
2022/08/30 09:32:26;;;;;;;2.40;1.05;;;;;;;26.39;44.08;101932.59;5066924;27;101490;-67
2022/08/30 09:34:53;;;;;;;2.10;1.38;;;;;;;26.60;43.96;101932.66;5065751;27;96880;-68
2022/08/30 09:37:31;;;;;;;3.42;1.73;;;;;;;26.79;43.55;101931.94;5068931;27;97448;-68
2022/08/30 09:39:58;;;;;;;4.82;1.20;;;;;;;26.61;43.55;101936.22;5066495;27;99945;-67
2022/08/30 09:42:27;;;;;;;4.97;1.10;;;;;;;26.84;43.51;101937.88;5066845;27;99186;-68
2022/08/30 09:45:09;;;;;;;2.00;1.00;;;;;;;27.07;42.75;101939.50;5065414;27;96870;-66
2022/08/30 09:47:37;;;;;;;1.98;0.90;;;;;;;27.15;42.50;101933.41;5071996;27;96969;-66
2022/08/30 09:50:07;;;;;;;2.90;1.10;;;;;;;26.57;42.58;101932.94;5073342;27;98874;-67
2022/08/30 09:52:45;;;;;;;4.07;1.38;;;;;;;26.96;42.01;101931.44;5070821;27;98870;-67
2022/08/30 09:55:23;;;;;;;2.88;0.63;;;;;;;26.83;41.98;101928.00;5067807;27;98313;-67
2022/08/30 09:57:59;;;;;;;2.30;0.57;;;;;;;27.11;41.02;101929.25;5072481;27;97350;-67
2022/08/30 10:00:30;;;;;;;5.70;1.00;;;;;;;27.43;41.02;101923.72;5066213;27;98905;-68
2022/08/30 10:03:06;;;;;;;0.52;0.52;;;;;;;27.43;40.32;101937.28;5072111;27;99792;-67
2022/08/30 10:05:42;;;;;;;4.00;1.10;;;;;;;27.61;39.99;101932.97;5070142;27;97092;-67
2022/08/30 10:08:16;;;;;;;2.88;0.90;;;;;;;27.59;39.87;101934.97;5073888;27;96771;-67
2022/08/30 10:10:49;;;;;;;1.55;1.33;;;;;;;27.76;39.56;101927.03;5073373;27;98858;-67
2022/08/30 10:13:47;;;;;;;1.23;0.60;;;;;;;27.54;39.07;101931.78;5068635;27;99033;-67
2022/08/30 10:16:22;;;;;;;2.25;0.80;;;;;;;27.52;39.55;101933.78;5074751;27;98072;-67
2022/08/30 10:18:57;;;;;;;1.10;1.00;;;;;;;27.71;38.76;101933.84;5071847;27;97182;-67
2022/08/30 10:21:30;;;;;;;1.70;0.90;;;;;;;27.29;39.18;101928.50;5066296;27;99230;-68
2022/08/30 10:24:05;;;;;;;1.42;0.82;;;;;;;27.43;38.95;101929.16;5070059;27;98689;-70
2022/08/30 10:26:35;;;;;;;1.70;0.80;;;;;;;27.46;39.17;101923.44;5059558;27;96707;-67
2022/08/30 10:29:06;;;;;;;3.30;1.17;;;;;;;27.66;39.08;101919.84;5071414;27;96934;-67
2022/08/30 10:31:38;;;;;;;1.73;1.10;;;;;;;27.77;38.68;101917.88;5059101;27;97620;-68
2022/08/30 10:34:09;;;;;;;2.50;1.30;;;;;;;27.81;38.40;101917.63;5068787;27;99284;-67
2022/08/30 10:36:42;;;;;;;2.03;1.23;;;;;;;27.84;38.78;101922.75;5067593;27;96757;-67
2022/08/30 10:39:13;;;;;;;3.05;2.10;;;;;;;27.74;37.72;101917.31;5066921;27;97213;-67
2022/08/30 10:41:45;;;;;;;2.10;1.20;;;;;;;27.83;37.78;101919.19;5071074;27;99096;-67
2022/08/30 10:44:20;;;;;;;0.88;0.88;;;;;;;27.86;37.28;101909.91;5069783;27;100372;-67
2022/08/30 10:47:01;;;;;;;1.52;0.70;;;;;;;27.86;37.26;101905.34;5067465;27;96982;-67
2022/08/30 10:49:31;;;;;;;0.85;0.80;;;;;;;27.79;36.92;101906.03;5070800;27;96943;-67
2022/08/30 10:52:07;;;;;;;3.05;1.08;;;;;;;28.21;36.70;101901.31;5067693;27;99671;-67
2022/08/30 10:54:43;;;;;;;0.88;0.80;;;;;;;28.41;35.89;101905.78;5069857;27;99252;-67
2022/08/30 10:57:10;;;;;;;1.90;1.00;;;;;;;28.75;35.82;101906.25;5069072;27;97544;-67
2022/08/30 10:59:44;;;;;;;3.50;1.30;;;;;;;29.00;34.92;101902.03;5070106;27;96816;-68
2022/08/30 11:02:29;;;;;;;1.33;0.82;;;;;;;29.04;34.22;101903.44;5077201;27;99185;-67
2022/08/30 11:05:17;;;;;;;1.00;0.60;;;;;;;29.17;33.44;101899.41;5068632;27;98637;-67
2022/08/30 11:07:56;;;;;;;0.88;0.70;;;;;;;29.09;33.86;101909.31;5071290;27;97048;-67
2022/08/30 11:10:39;;;;;;;1.38;0.80;;;;;;;28.65;34.33;101902.63;5073753;27;97031;-67
2022/08/30 11:13:11;;;;;;;2.22;0.60;;;;;;;28.90;34.38;101902.91;5068857;27;99842;-67
2022/08/30 11:15:56;;;;;;;1.55;0.70;;;;;;;28.93;34.70;101902.63;5070889;27;99114;-67
2022/08/30 11:18:28;;;;;;;0.95;0.60;;;;;;;28.92;34.59;101895.47;5072042;27;96917;-67
2022/08/30 11:21:16;;;;;;;1.05;0.60;;;;;;;29.01;34.53;101895.59;5071322;27;96745;-67
2022/08/30 11:23:59;;;;;;;2.67;0.85;;;;;;;28.99;35.22;101897.59;5057894;27;98666;-68
2022/08/30 11:26:59;;;;;;;3.08;0.80;;;;;;;28.63;36.18;101899.16;5064354;27;98913;-67
2022/08/30 11:29:41;;;;;;;3.30;0.60;;;;;;;28.65;36.71;101894.44;5061996;27;96883;-68
2022/08/30 11:32:24;;;;;;;2.25;0.80;;;;;;;28.18;37.04;101890.72;5064624;27;97214;-67
2022/08/30 11:34:56;;;;;;;1.60;0.90;;;;;;;28.30;37.24;101882.28;5062319;27;98779;-67
2022/08/30 11:37:41;;;;;;;3.15;1.00;;;;;;;28.43;36.97;101887.44;5067428;27;99144;-67
2022/08/30 11:40:46;;;;;;;1.52;1.02;;;;;;;28.06;37.45;101871.78;5066358;27;96996;-68